sensor_id;sensor_type;location;lat;lon;timestamp;P1;durP1;ratioP1;P2;durP2;ratioP2
21814;SDS011;11069;48.988;8.450;2024-03-08T00:00:13;33.53;;;25.38;;
21814;SDS011;11069;48.988;8.450;2024-03-08T00:02:40;35.38;;;25.02;;
21814;SDS011;11069;48.988;8.450;2024-03-08T00:05:06;32.78;;;25.52;;
21814;SDS011;11069;48.988;8.450;2024-03-08T00:07:36;35.80;;;25.47;;
21814;SDS011;11069;48.988;8.450;2024-03-08T00:10:05;34.47;;;25.10;;
21814;SDS011;11069;48.988;8.450;2024-03-08T00:12:35;34.65;;;25.48;;
21814;SDS011;11069;48.988;8.450;2024-03-08T00:15:01;32.72;;;25.08;;
21814;SDS011;11069;48.988;8.450;2024-03-08T00:17:26;35.63;;;25.23;;
21814;SDS011;11069;48.988;8.450;2024-03-08T00:19:52;34.45;;;25.88;;
21814;SDS011;11069;48.988;8.450;2024-03-08T00:22:18;35.13;;;26.50;;
21814;SDS011;11069;48.988;8.450;2024-03-08T00:24:43;38.17;;;26.25;;
21814;SDS011;11069;48.988;8.450;2024-03-08T00:27:10;32.72;;;24.80;;
21814;SDS011;11069;48.988;8.450;2024-03-08T00:29:36;35.53;;;25.95;;
21814;SDS011;11069;48.988;8.450;2024-03-08T00:32:03;35.42;;;25.95;;
21814;SDS011;11069;48.988;8.450;2024-03-08T00:34:29;36.60;;;26.83;;
21814;SDS011;11069;48.988;8.450;2024-03-08T00:36:55;36.80;;;26.70;;
21814;SDS011;11069;48.988;8.450;2024-03-08T00:39:20;34.40;;;25.65;;
21814;SDS011;11069;48.988;8.450;2024-03-08T00:41:46;34.75;;;25.33;;
21814;SDS011;11069;48.988;8.450;2024-03-08T00:44:12;35.72;;;26.30;;
21814;SDS011;11069;48.988;8.450;2024-03-08T00:46:38;34.45;;;25.92;;
21814;SDS011;11069;48.988;8.450;2024-03-08T00:49:03;34.72;;;26.23;;
21814;SDS011;11069;48.988;8.450;2024-03-08T00:51:29;34.78;;;25.92;;
21814;SDS011;11069;48.988;8.450;2024-03-08T00:53:54;37.97;;;26.98;;
21814;SDS011;11069;48.988;8.450;2024-03-08T00:56:20;38.20;;;27.10;;
21814;SDS011;11069;48.988;8.450;2024-03-08T00:58:46;35.08;;;26.58;;
21814;SDS011;11069;48.988;8.450;2024-03-08T01:01:12;38.28;;;26.92;;
21814;SDS011;11069;48.988;8.450;2024-03-08T01:03:42;36.80;;;26.70;;
21814;SDS011;11069;48.988;8.450;2024-03-08T01:06:08;35.97;;;26.38;;
21814;SDS011;11069;48.988;8.450;2024-03-08T01:08:34;36.33;;;27.38;;
21814;SDS011;11069;48.988;8.450;2024-03-08T01:10:59;36.88;;;26.63;;
21814;SDS011;11069;48.988;8.450;2024-03-08T01:13:25;35.78;;;26.13;;
21814;SDS011;11069;48.988;8.450;2024-03-08T01:15:51;38.13;;;26.80;;
21814;SDS011;11069;48.988;8.450;2024-03-08T01:18:16;34.90;;;26.23;;
21814;SDS011;11069;48.988;8.450;2024-03-08T01:20:42;38.03;;;26.75;;
21814;SDS011;11069;48.988;8.450;2024-03-08T01:23:07;39.25;;;27.27;;
21814;SDS011;11069;48.988;8.450;2024-03-08T01:25:33;33.83;;;26.45;;
21814;SDS011;11069;48.988;8.450;2024-03-08T01:27:59;37.05;;;27.58;;
21814;SDS011;11069;48.988;8.450;2024-03-08T01:30:25;37.13;;;27.23;;
21814;SDS011;11069;48.988;8.450;2024-03-08T01:32:50;36.83;;;27.83;;
21814;SDS011;11069;48.988;8.450;2024-03-08T01:35:16;36.65;;;26.77;;
21814;SDS011;11069;48.988;8.450;2024-03-08T01:37:43;38.33;;;28.13;;
21814;SDS011;11069;48.988;8.450;2024-03-08T01:40:08;38.03;;;26.95;;
21814;SDS011;11069;48.988;8.450;2024-03-08T01:42:34;40.40;;;27.02;;
21814;SDS011;11069;48.988;8.450;2024-03-08T01:45:03;39.17;;;28.67;;
21814;SDS011;11069;48.988;8.450;2024-03-08T01:47:31;36.38;;;27.17;;
21814;SDS011;11069;48.988;8.450;2024-03-08T01:49:57;39.83;;;27.77;;
21814;SDS011;11069;48.988;8.450;2024-03-08T01:52:26;37.38;;;27.38;;
21814;SDS011;11069;48.988;8.450;2024-03-08T01:54:53;36.00;;;27.00;;
21814;SDS011;11069;48.988;8.450;2024-03-08T01:57:19;38.38;;;27.77;;
21814;SDS011;11069;48.988;8.450;2024-03-08T01:59:45;38.95;;;26.95;;
21814;SDS011;11069;48.988;8.450;2024-03-08T02:02:11;36.03;;;26.65;;
21814;SDS011;11069;48.988;8.450;2024-03-08T02:07:08;37.10;;;27.10;;
21814;SDS011;11069;48.988;8.450;2024-03-08T02:09:33;37.88;;;27.83;;
21814;SDS011;11069;48.988;8.450;2024-03-08T02:11:59;38.60;;;27.67;;
21814;SDS011;11069;48.988;8.450;2024-03-08T02:14:25;39.25;;;27.80;;
21814;SDS011;11069;48.988;8.450;2024-03-08T02:16:50;39.42;;;27.83;;
21814;SDS011;11069;48.988;8.450;2024-03-08T02:19:16;37.22;;;27.48;;
21814;SDS011;11069;48.988;8.450;2024-03-08T02:21:42;41.08;;;28.38;;
21814;SDS011;11069;48.988;8.450;2024-03-08T02:24:08;40.03;;;27.92;;
21814;SDS011;11069;48.988;8.450;2024-03-08T02:26:34;38.58;;;27.63;;
21814;SDS011;11069;48.988;8.450;2024-03-08T02:28:59;37.80;;;28.88;;
21814;SDS011;11069;48.988;8.450;2024-03-08T02:31:26;38.85;;;28.30;;
21814;SDS011;11069;48.988;8.450;2024-03-08T02:33:51;40.08;;;29.23;;
21814;SDS011;11069;48.988;8.450;2024-03-08T02:36:17;37.78;;;27.63;;
21814;SDS011;11069;48.988;8.450;2024-03-08T02:38:42;39.05;;;28.73;;
21814;SDS011;11069;48.988;8.450;2024-03-08T02:41:08;39.67;;;28.63;;
21814;SDS011;11069;48.988;8.450;2024-03-08T02:43:33;39.58;;;28.70;;
21814;SDS011;11069;48.988;8.450;2024-03-08T02:45:59;39.00;;;28.17;;
21814;SDS011;11069;48.988;8.450;2024-03-08T02:48:25;39.33;;;28.50;;
21814;SDS011;11069;48.988;8.450;2024-03-08T02:50:50;39.10;;;27.88;;
21814;SDS011;11069;48.988;8.450;2024-03-08T02:53:16;41.03;;;28.45;;
21814;SDS011;11069;48.988;8.450;2024-03-08T02:55:44;36.20;;;28.23;;
21814;SDS011;11069;48.988;8.450;2024-03-08T02:58:09;38.67;;;29.20;;
21814;SDS011;11069;48.988;8.450;2024-03-08T03:00:35;42.28;;;29.27;;
21814;SDS011;11069;48.988;8.450;2024-03-08T03:03:02;36.65;;;28.02;;
21814;SDS011;11069;48.988;8.450;2024-03-08T03:05:28;39.33;;;28.45;;
21814;SDS011;11069;48.988;8.450;2024-03-08T03:07:54;42.17;;;29.30;;
21814;SDS011;11069;48.988;8.450;2024-03-08T03:10:21;38.83;;;28.60;;
21814;SDS011;11069;48.988;8.450;2024-03-08T03:12:47;41.88;;;29.98;;
21814;SDS011;11069;48.988;8.450;2024-03-08T03:15:16;40.90;;;28.42;;
21814;SDS011;11069;48.988;8.450;2024-03-08T03:17:45;39.13;;;28.75;;
21814;SDS011;11069;48.988;8.450;2024-03-08T03:20:18;40.25;;;29.45;;
21814;SDS011;11069;48.988;8.450;2024-03-08T03:22:57;40.95;;;29.05;;
21814;SDS011;11069;48.988;8.450;2024-03-08T03:25:26;37.42;;;27.90;;
21814;SDS011;11069;48.988;8.450;2024-03-08T03:27:54;42.20;;;30.00;;
21814;SDS011;11069;48.988;8.450;2024-03-08T03:30:25;43.72;;;29.85;;
21814;SDS011;11069;48.988;8.450;2024-03-08T03:32:55;38.88;;;28.42;;
21814;SDS011;11069;48.988;8.450;2024-03-08T03:35:23;40.35;;;29.13;;
21814;SDS011;11069;48.988;8.450;2024-03-08T03:37:49;41.65;;;29.70;;
21814;SDS011;11069;48.988;8.450;2024-03-08T03:40:36;39.70;;;29.00;;
21814;SDS011;11069;48.988;8.450;2024-03-08T03:43:02;42.08;;;29.33;;
21814;SDS011;11069;48.988;8.450;2024-03-08T03:45:28;40.03;;;28.45;;
21814;SDS011;11069;48.988;8.450;2024-03-08T03:47:54;42.17;;;29.65;;
21814;SDS011;11069;48.988;8.450;2024-03-08T03:50:20;43.70;;;29.75;;
21814;SDS011;11069;48.988;8.450;2024-03-08T03:52:47;41.67;;;30.05;;
21814;SDS011;11069;48.988;8.450;2024-03-08T03:55:13;44.15;;;30.10;;
21814;SDS011;11069;48.988;8.450;2024-03-08T03:57:39;41.15;;;30.35;;
21814;SDS011;11069;48.988;8.450;2024-03-08T04:00:06;41.35;;;29.30;;
21814;SDS011;11069;48.988;8.450;2024-03-08T04:02:35;40.58;;;28.73;;
21814;SDS011;11069;48.988;8.450;2024-03-08T04:05:05;42.70;;;30.05;;
21814;SDS011;11069;48.988;8.450;2024-03-08T04:07:31;39.92;;;28.95;;
21814;SDS011;11069;48.988;8.450;2024-03-08T04:09:57;40.42;;;29.50;;
21814;SDS011;11069;48.988;8.450;2024-03-08T04:12:22;39.17;;;29.17;;
21814;SDS011;11069;48.988;8.450;2024-03-08T04:14:48;38.15;;;28.17;;
21814;SDS011;11069;48.988;8.450;2024-03-08T04:17:13;39.22;;;28.38;;
21814;SDS011;11069;48.988;8.450;2024-03-08T04:19:39;41.75;;;29.00;;
21814;SDS011;11069;48.988;8.450;2024-03-08T04:22:08;41.65;;;29.67;;
21814;SDS011;11069;48.988;8.450;2024-03-08T04:24:33;41.83;;;29.02;;
21814;SDS011;11069;48.988;8.450;2024-03-08T04:26:59;40.72;;;28.90;;
21814;SDS011;11069;48.988;8.450;2024-03-08T04:29:25;40.33;;;28.73;;
21814;SDS011;11069;48.988;8.450;2024-03-08T04:31:51;40.40;;;28.65;;
21814;SDS011;11069;48.988;8.450;2024-03-08T04:34:19;42.53;;;29.42;;
21814;SDS011;11069;48.988;8.450;2024-03-08T04:36:46;45.85;;;30.30;;
21814;SDS011;11069;48.988;8.450;2024-03-08T04:39:12;39.03;;;28.15;;
21814;SDS011;11069;48.988;8.450;2024-03-08T04:41:39;39.75;;;28.90;;
21814;SDS011;11069;48.988;8.450;2024-03-08T04:44:04;41.00;;;29.50;;
21814;SDS011;11069;48.988;8.450;2024-03-08T04:46:31;39.47;;;27.98;;
21814;SDS011;11069;48.988;8.450;2024-03-08T04:48:56;41.88;;;28.45;;
21814;SDS011;11069;48.988;8.450;2024-03-08T04:51:23;38.75;;;28.35;;
21814;SDS011;11069;48.988;8.450;2024-03-08T04:53:50;36.35;;;27.13;;
21814;SDS011;11069;48.988;8.450;2024-03-08T04:56:15;40.67;;;28.77;;
21814;SDS011;11069;48.988;8.450;2024-03-08T04:58:41;37.72;;;27.38;;
21814;SDS011;11069;48.988;8.450;2024-03-08T05:01:06;40.65;;;27.98;;
21814;SDS011;11069;48.988;8.450;2024-03-08T05:03:35;37.20;;;26.52;;
21814;SDS011;11069;48.988;8.450;2024-03-08T05:06:00;38.97;;;27.48;;
21814;SDS011;11069;48.988;8.450;2024-03-08T05:08:26;38.35;;;27.75;;
21814;SDS011;11069;48.988;8.450;2024-03-08T05:10:52;36.97;;;27.40;;
21814;SDS011;11069;48.988;8.450;2024-03-08T05:13:17;39.03;;;26.83;;
21814;SDS011;11069;48.988;8.450;2024-03-08T05:15:43;36.55;;;27.50;;
21814;SDS011;11069;48.988;8.450;2024-03-08T05:18:12;39.25;;;27.60;;
21814;SDS011;11069;48.988;8.450;2024-03-08T05:20:39;38.97;;;26.67;;
21814;SDS011;11069;48.988;8.450;2024-03-08T05:23:06;38.58;;;26.63;;
21814;SDS011;11069;48.988;8.450;2024-03-08T05:25:32;36.33;;;26.85;;
21814;SDS011;11069;48.988;8.450;2024-03-08T05:27:57;40.50;;;27.63;;
21814;SDS011;11069;48.988;8.450;2024-03-08T05:30:23;38.78;;;27.85;;
21814;SDS011;11069;48.988;8.450;2024-03-08T05:32:48;38.08;;;27.58;;
21814;SDS011;11069;48.988;8.450;2024-03-08T05:35:14;37.72;;;27.75;;
21814;SDS011;11069;48.988;8.450;2024-03-08T05:37:41;39.92;;;28.48;;
21814;SDS011;11069;48.988;8.450;2024-03-08T05:40:07;40.45;;;28.55;;
21814;SDS011;11069;48.988;8.450;2024-03-08T05:42:34;37.00;;;27.58;;
21814;SDS011;11069;48.988;8.450;2024-03-08T05:45:01;39.03;;;27.25;;
21814;SDS011;11069;48.988;8.450;2024-03-08T05:47:27;39.40;;;27.35;;
21814;SDS011;11069;48.988;8.450;2024-03-08T05:49:53;37.65;;;27.60;;
21814;SDS011;11069;48.988;8.450;2024-03-08T05:52:19;39.53;;;26.80;;
21814;SDS011;11069;48.988;8.450;2024-03-08T05:54:45;40.22;;;28.45;;
21814;SDS011;11069;48.988;8.450;2024-03-08T05:57:12;37.63;;;27.08;;
21814;SDS011;11069;48.988;8.450;2024-03-08T05:59:38;37.80;;;27.42;;
21814;SDS011;11069;48.988;8.450;2024-03-08T06:02:04;37.65;;;27.33;;
21814;SDS011;11069;48.988;8.450;2024-03-08T06:04:30;39.88;;;27.27;;
21814;SDS011;11069;48.988;8.450;2024-03-08T06:06:56;39.72;;;27.55;;
21814;SDS011;11069;48.988;8.450;2024-03-08T06:09:23;36.00;;;26.95;;
21814;SDS011;11069;48.988;8.450;2024-03-08T06:11:49;37.55;;;27.50;;
21814;SDS011;11069;48.988;8.450;2024-03-08T06:14:15;37.67;;;27.27;;
21814;SDS011;11069;48.988;8.450;2024-03-08T06:16:44;37.47;;;27.23;;
21814;SDS011;11069;48.988;8.450;2024-03-08T06:19:10;41.35;;;28.48;;
21814;SDS011;11069;48.988;8.450;2024-03-08T06:21:37;38.30;;;26.60;;
21814;SDS011;11069;48.988;8.450;2024-03-08T06:24:02;37.10;;;26.70;;
21814;SDS011;11069;48.988;8.450;2024-03-08T06:26:28;37.35;;;27.65;;
21814;SDS011;11069;48.988;8.450;2024-03-08T06:28:54;36.22;;;26.30;;
21814;SDS011;11069;48.988;8.450;2024-03-08T06:31:20;36.65;;;27.35;;
21814;SDS011;11069;48.988;8.450;2024-03-08T06:33:45;37.78;;;26.88;;
21814;SDS011;11069;48.988;8.450;2024-03-08T06:36:11;36.25;;;26.27;;
21814;SDS011;11069;48.988;8.450;2024-03-08T06:38:40;34.72;;;25.83;;
21814;SDS011;11069;48.988;8.450;2024-03-08T06:41:08;34.70;;;25.63;;
21814;SDS011;11069;48.988;8.450;2024-03-08T06:43:34;34.92;;;25.67;;
21814;SDS011;11069;48.988;8.450;2024-03-08T06:46:00;36.45;;;26.15;;
21814;SDS011;11069;48.988;8.450;2024-03-08T06:48:26;37.70;;;27.35;;
21814;SDS011;11069;48.988;8.450;2024-03-08T06:50:52;37.05;;;26.85;;
21814;SDS011;11069;48.988;8.450;2024-03-08T06:53:17;36.72;;;26.38;;
21814;SDS011;11069;48.988;8.450;2024-03-08T06:55:45;40.13;;;27.33;;
21814;SDS011;11069;48.988;8.450;2024-03-08T06:58:11;36.17;;;25.95;;
21814;SDS011;11069;48.988;8.450;2024-03-08T07:00:37;36.28;;;26.20;;
21814;SDS011;11069;48.988;8.450;2024-03-08T07:03:03;34.20;;;25.20;;
21814;SDS011;11069;48.988;8.450;2024-03-08T07:05:32;38.47;;;26.08;;
21814;SDS011;11069;48.988;8.450;2024-03-08T07:07:58;35.50;;;26.13;;
21814;SDS011;11069;48.988;8.450;2024-03-08T07:10:23;35.33;;;26.23;;
21814;SDS011;11069;48.988;8.450;2024-03-08T07:12:53;34.20;;;25.10;;
21814;SDS011;11069;48.988;8.450;2024-03-08T07:15:19;31.27;;;23.70;;
21814;SDS011;11069;48.988;8.450;2024-03-08T07:17:46;30.85;;;23.60;;
21814;SDS011;11069;48.988;8.450;2024-03-08T07:20:12;30.65;;;23.05;;
21814;SDS011;11069;48.988;8.450;2024-03-08T07:22:39;30.83;;;22.45;;
21814;SDS011;11069;48.988;8.450;2024-03-08T07:25:05;28.38;;;21.13;;
21814;SDS011;11069;48.988;8.450;2024-03-08T07:27:47;28.50;;;21.58;;
21814;SDS011;11069;48.988;8.450;2024-03-08T07:30:13;30.30;;;22.42;;
21814;SDS011;11069;48.988;8.450;2024-03-08T07:32:59;30.38;;;22.45;;
21814;SDS011;11069;48.988;8.450;2024-03-08T07:35:27;27.70;;;21.83;;
21814;SDS011;11069;48.988;8.450;2024-03-08T07:37:53;29.95;;;22.05;;
21814;SDS011;11069;48.988;8.450;2024-03-08T07:40:22;30.80;;;22.55;;
21814;SDS011;11069;48.988;8.450;2024-03-08T07:42:48;32.92;;;23.63;;
21814;SDS011;11069;48.988;8.450;2024-03-08T07:45:15;29.10;;;20.83;;
21814;SDS011;11069;48.988;8.450;2024-03-08T07:47:41;29.35;;;22.15;;
21814;SDS011;11069;48.988;8.450;2024-03-08T07:50:07;28.23;;;21.73;;
21814;SDS011;11069;48.988;8.450;2024-03-08T07:52:35;28.88;;;22.48;;
21814;SDS011;11069;48.988;8.450;2024-03-08T07:55:02;31.65;;;23.05;;
21814;SDS011;11069;48.988;8.450;2024-03-08T07:57:31;27.73;;;21.67;;
21814;SDS011;11069;48.988;8.450;2024-03-08T07:59:57;28.70;;;21.70;;
21814;SDS011;11069;48.988;8.450;2024-03-08T08:02:23;28.10;;;21.58;;
21814;SDS011;11069;48.988;8.450;2024-03-08T08:04:48;27.17;;;21.30;;
21814;SDS011;11069;48.988;8.450;2024-03-08T08:07:14;32.38;;;22.27;;
21814;SDS011;11069;48.988;8.450;2024-03-08T08:09:40;26.45;;;20.98;;
21814;SDS011;11069;48.988;8.450;2024-03-08T08:12:07;28.10;;;21.55;;
21814;SDS011;11069;48.988;8.450;2024-03-08T08:14:37;29.25;;;21.73;;
21814;SDS011;11069;48.988;8.450;2024-03-08T08:17:03;29.27;;;21.60;;
21814;SDS011;11069;48.988;8.450;2024-03-08T08:19:29;27.80;;;20.98;;
21814;SDS011;11069;48.988;8.450;2024-03-08T08:21:55;28.48;;;21.25;;
21814;SDS011;11069;48.988;8.450;2024-03-08T08:24:20;30.83;;;21.30;;
21814;SDS011;11069;48.988;8.450;2024-03-08T08:26:47;29.50;;;21.50;;
21814;SDS011;11069;48.988;8.450;2024-03-08T08:29:12;30.45;;;22.45;;
21814;SDS011;11069;48.988;8.450;2024-03-08T08:31:38;30.80;;;22.00;;
21814;SDS011;11069;48.988;8.450;2024-03-08T08:34:04;26.42;;;20.65;;
21814;SDS011;11069;48.988;8.450;2024-03-08T08:36:31;27.60;;;21.08;;
21814;SDS011;11069;48.988;8.450;2024-03-08T08:38:56;27.63;;;21.13;;
21814;SDS011;11069;48.988;8.450;2024-03-08T08:41:23;32.53;;;21.70;;
21814;SDS011;11069;48.988;8.450;2024-03-08T08:43:49;28.00;;;21.65;;
21814;SDS011;11069;48.988;8.450;2024-03-08T08:46:17;27.38;;;20.23;;
21814;SDS011;11069;48.988;8.450;2024-03-08T08:48:43;27.05;;;20.00;;
21814;SDS011;11069;48.988;8.450;2024-03-08T08:51:12;26.95;;;19.85;;
21814;SDS011;11069;48.988;8.450;2024-03-08T08:53:38;28.05;;;20.02;;
21814;SDS011;11069;48.988;8.450;2024-03-08T08:56:07;26.50;;;19.67;;
21814;SDS011;11069;48.988;8.450;2024-03-08T08:58:38;27.75;;;20.10;;
21814;SDS011;11069;48.988;8.450;2024-03-08T09:01:08;26.27;;;19.95;;
21814;SDS011;11069;48.988;8.450;2024-03-08T09:03:35;26.17;;;19.80;;
21814;SDS011;11069;48.988;8.450;2024-03-08T09:06:02;26.33;;;19.73;;
21814;SDS011;11069;48.988;8.450;2024-03-08T09:08:35;24.63;;;18.70;;
21814;SDS011;11069;48.988;8.450;2024-03-08T09:11:01;24.70;;;19.98;;
21814;SDS011;11069;48.988;8.450;2024-03-08T09:13:26;25.90;;;19.77;;
21814;SDS011;11069;48.988;8.450;2024-03-08T09:15:52;26.67;;;19.13;;
21814;SDS011;11069;48.988;8.450;2024-03-08T09:18:18;24.17;;;19.48;;
21814;SDS011;11069;48.988;8.450;2024-03-08T09:20:44;26.25;;;19.95;;
21814;SDS011;11069;48.988;8.450;2024-03-08T09:23:10;27.50;;;19.45;;
21814;SDS011;11069;48.988;8.450;2024-03-08T09:25:35;26.88;;;19.65;;
21814;SDS011;11069;48.988;8.450;2024-03-08T09:28:01;24.48;;;18.52;;
21814;SDS011;11069;48.988;8.450;2024-03-08T09:30:27;28.15;;;20.17;;
21814;SDS011;11069;48.988;8.450;2024-03-08T09:32:53;25.15;;;18.80;;
21814;SDS011;11069;48.988;8.450;2024-03-08T09:35:19;27.55;;;19.42;;
21814;SDS011;11069;48.988;8.450;2024-03-08T09:37:45;24.65;;;19.23;;
21814;SDS011;11069;48.988;8.450;2024-03-08T09:40:14;26.65;;;19.48;;
21814;SDS011;11069;48.988;8.450;2024-03-08T09:42:41;24.25;;;18.20;;
21814;SDS011;11069;48.988;8.450;2024-03-08T09:45:10;23.13;;;18.23;;
21814;SDS011;11069;48.988;8.450;2024-03-08T09:47:37;25.17;;;19.55;;
21814;SDS011;11069;48.988;8.450;2024-03-08T09:50:07;27.35;;;19.95;;
21814;SDS011;11069;48.988;8.450;2024-03-08T09:52:36;23.15;;;18.25;;
21814;SDS011;11069;48.988;8.450;2024-03-08T09:55:03;22.77;;;18.05;;
21814;SDS011;11069;48.988;8.450;2024-03-08T09:57:31;24.98;;;17.70;;
21814;SDS011;11069;48.988;8.450;2024-03-08T09:59:58;24.38;;;18.27;;
21814;SDS011;11069;48.988;8.450;2024-03-08T10:02:24;24.38;;;18.52;;
21814;SDS011;11069;48.988;8.450;2024-03-08T10:04:51;25.77;;;18.38;;
21814;SDS011;11069;48.988;8.450;2024-03-08T10:07:18;23.92;;;18.02;;
21814;SDS011;11069;48.988;8.450;2024-03-08T10:09:44;23.58;;;17.83;;
21814;SDS011;11069;48.988;8.450;2024-03-08T10:14:41;25.63;;;19.23;;
21814;SDS011;11069;48.988;8.450;2024-03-08T10:17:07;24.98;;;18.75;;
21814;SDS011;11069;48.988;8.450;2024-03-08T10:19:33;23.30;;;18.38;;
21814;SDS011;11069;48.988;8.450;2024-03-08T10:21:59;22.75;;;17.65;;
21814;SDS011;11069;48.988;8.450;2024-03-08T10:24:25;24.52;;;18.00;;
21814;SDS011;11069;48.988;8.450;2024-03-08T10:26:55;23.67;;;18.17;;
21814;SDS011;11069;48.988;8.450;2024-03-08T10:29:24;24.17;;;17.55;;
21814;SDS011;11069;48.988;8.450;2024-03-08T10:31:50;25.48;;;17.70;;
21814;SDS011;11069;48.988;8.450;2024-03-08T10:34:16;22.75;;;17.42;;
21814;SDS011;11069;48.988;8.450;2024-03-08T10:36:42;23.33;;;17.90;;
21814;SDS011;11069;48.988;8.450;2024-03-08T10:39:24;23.77;;;17.83;;
21814;SDS011;11069;48.988;8.450;2024-03-08T10:41:57;23.17;;;17.23;;
21814;SDS011;11069;48.988;8.450;2024-03-08T10:47:17;24.10;;;17.08;;
21814;SDS011;11069;48.988;8.450;2024-03-08T10:49:51;19.63;;;16.08;;
21814;SDS011;11069;48.988;8.450;2024-03-08T10:52:28;22.02;;;16.55;;
21814;SDS011;11069;48.988;8.450;2024-03-08T10:54:54;21.85;;;17.23;;
21814;SDS011;11069;48.988;8.450;2024-03-08T10:57:21;22.63;;;17.25;;
21814;SDS011;11069;48.988;8.450;2024-03-08T10:59:52;25.38;;;16.90;;
21814;SDS011;11069;48.988;8.450;2024-03-08T11:02:19;22.35;;;16.65;;
21814;SDS011;11069;48.988;8.450;2024-03-08T11:04:47;20.40;;;16.20;;
21814;SDS011;11069;48.988;8.450;2024-03-08T11:07:14;22.88;;;17.42;;
21814;SDS011;11069;48.988;8.450;2024-03-08T11:09:45;23.83;;;17.55;;
21814;SDS011;11069;48.988;8.450;2024-03-08T11:12:28;22.75;;;17.70;;
21814;SDS011;11069;48.988;8.450;2024-03-08T11:17:21;21.67;;;16.67;;
21814;SDS011;11069;48.988;8.450;2024-03-08T11:19:52;23.63;;;17.10;;
21814;SDS011;11069;48.988;8.450;2024-03-08T11:22:47;20.30;;;15.90;;
21814;SDS011;11069;48.988;8.450;2024-03-08T11:28:20;21.15;;;15.75;;
21814;SDS011;11069;48.988;8.450;2024-03-08T11:33:24;19.95;;;15.32;;
21814;SDS011;11069;48.988;8.450;2024-03-08T11:35:52;22.58;;;16.40;;
21814;SDS011;11069;48.988;8.450;2024-03-08T11:38:27;19.45;;;15.52;;
21814;SDS011;11069;48.988;8.450;2024-03-08T11:40:56;22.10;;;16.10;;
21814;SDS011;11069;48.988;8.450;2024-03-08T11:43:22;19.65;;;16.17;;
21814;SDS011;11069;48.988;8.450;2024-03-08T11:45:47;23.08;;;16.50;;
21814;SDS011;11069;48.988;8.450;2024-03-08T11:48:13;21.98;;;16.55;;
21814;SDS011;11069;48.988;8.450;2024-03-08T11:50:39;22.48;;;15.98;;
21814;SDS011;11069;48.988;8.450;2024-03-08T11:53:05;19.40;;;16.48;;
21814;SDS011;11069;48.988;8.450;2024-03-08T11:55:34;22.33;;;16.25;;
21814;SDS011;11069;48.988;8.450;2024-03-08T11:58:03;22.98;;;16.65;;
21814;SDS011;11069;48.988;8.450;2024-03-08T12:00:30;22.20;;;16.27;;
21814;SDS011;11069;48.988;8.450;2024-03-08T12:03:06;20.48;;;16.48;;
21814;SDS011;11069;48.988;8.450;2024-03-08T12:05:34;21.35;;;16.55;;
21814;SDS011;11069;48.988;8.450;2024-03-08T12:08:01;22.70;;;16.58;;
21814;SDS011;11069;48.988;8.450;2024-03-08T12:10:27;20.35;;;16.02;;
21814;SDS011;11069;48.988;8.450;2024-03-08T12:12:53;23.58;;;16.80;;
21814;SDS011;11069;48.988;8.450;2024-03-08T12:15:22;22.42;;;16.67;;
21814;SDS011;11069;48.988;8.450;2024-03-08T12:17:52;22.20;;;17.23;;
21814;SDS011;11069;48.988;8.450;2024-03-08T12:20:24;22.15;;;16.85;;
21814;SDS011;11069;48.988;8.450;2024-03-08T12:22:52;19.45;;;15.55;;
21814;SDS011;11069;48.988;8.450;2024-03-08T12:25:19;23.85;;;16.30;;
21814;SDS011;11069;48.988;8.450;2024-03-08T12:27:45;20.58;;;16.40;;
21814;SDS011;11069;48.988;8.450;2024-03-08T12:30:15;22.08;;;17.10;;
21814;SDS011;11069;48.988;8.450;2024-03-08T12:32:46;21.80;;;17.53;;
21814;SDS011;11069;48.988;8.450;2024-03-08T12:35:15;21.73;;;16.95;;
21814;SDS011;11069;48.988;8.450;2024-03-08T12:37:41;21.98;;;16.48;;
21814;SDS011;11069;48.988;8.450;2024-03-08T12:40:07;19.75;;;15.93;;
21814;SDS011;11069;48.988;8.450;2024-03-08T12:42:34;22.08;;;16.85;;
21814;SDS011;11069;48.988;8.450;2024-03-08T12:45:00;21.60;;;17.02;;
21814;SDS011;11069;48.988;8.450;2024-03-08T12:47:26;22.67;;;17.80;;
21814;SDS011;11069;48.988;8.450;2024-03-08T12:49:54;22.38;;;17.00;;
21814;SDS011;11069;48.988;8.450;2024-03-08T12:52:19;22.92;;;17.38;;
21814;SDS011;11069;48.988;8.450;2024-03-08T12:54:45;23.10;;;17.23;;
21814;SDS011;11069;48.988;8.450;2024-03-08T12:57:12;22.13;;;17.55;;
21814;SDS011;11069;48.988;8.450;2024-03-08T12:59:38;23.30;;;17.23;;
21814;SDS011;11069;48.988;8.450;2024-03-08T13:02:04;21.77;;;16.92;;
21814;SDS011;11069;48.988;8.450;2024-03-08T13:04:36;21.80;;;16.88;;
21814;SDS011;11069;48.988;8.450;2024-03-08T13:07:02;21.50;;;17.23;;
21814;SDS011;11069;48.988;8.450;2024-03-08T13:09:28;21.52;;;17.33;;
21814;SDS011;11069;48.988;8.450;2024-03-08T13:11:54;22.35;;;17.45;;
21814;SDS011;11069;48.988;8.450;2024-03-08T13:14:20;21.75;;;16.75;;
21814;SDS011;11069;48.988;8.450;2024-03-08T13:16:47;23.23;;;16.52;;
21814;SDS011;11069;48.988;8.450;2024-03-08T13:19:13;21.88;;;16.77;;
21814;SDS011;11069;48.988;8.450;2024-03-08T13:21:38;21.05;;;15.93;;
21814;SDS011;11069;48.988;8.450;2024-03-08T13:24:04;21.73;;;16.52;;
21814;SDS011;11069;48.988;8.450;2024-03-08T13:26:30;21.65;;;16.83;;
21814;SDS011;11069;48.988;8.450;2024-03-08T13:28:58;23.15;;;17.05;;
21814;SDS011;11069;48.988;8.450;2024-03-08T13:31:27;19.92;;;16.55;;
21814;SDS011;11069;48.988;8.450;2024-03-08T13:33:53;20.73;;;16.15;;
21814;SDS011;11069;48.988;8.450;2024-03-08T13:36:23;21.75;;;15.98;;
21814;SDS011;11069;48.988;8.450;2024-03-08T13:38:53;20.48;;;16.10;;
21814;SDS011;11069;48.988;8.450;2024-03-08T13:41:19;20.13;;;16.42;;
21814;SDS011;11069;48.988;8.450;2024-03-08T13:43:47;20.30;;;15.50;;
21814;SDS011;11069;48.988;8.450;2024-03-08T13:46:14;20.52;;;16.73;;
21814;SDS011;11069;48.988;8.450;2024-03-08T13:48:40;21.15;;;16.38;;
21814;SDS011;11069;48.988;8.450;2024-03-08T13:51:06;21.83;;;16.25;;
21814;SDS011;11069;48.988;8.450;2024-03-08T13:53:35;22.90;;;16.15;;
21814;SDS011;11069;48.988;8.450;2024-03-08T13:56:03;21.33;;;16.52;;
21814;SDS011;11069;48.988;8.450;2024-03-08T13:58:30;22.38;;;16.90;;
21814;SDS011;11069;48.988;8.450;2024-03-08T14:00:56;25.15;;;16.60;;
21814;SDS011;11069;48.988;8.450;2024-03-08T14:03:22;24.77;;;17.30;;
21814;SDS011;11069;48.988;8.450;2024-03-08T14:05:49;22.83;;;15.98;;
21814;SDS011;11069;48.988;8.450;2024-03-08T14:08:15;20.95;;;15.63;;
21814;SDS011;11069;48.988;8.450;2024-03-08T14:10:42;19.10;;;15.77;;
21814;SDS011;11069;48.988;8.450;2024-03-08T14:13:08;23.95;;;16.23;;
21814;SDS011;11069;48.988;8.450;2024-03-08T14:15:34;20.77;;;15.88;;
21814;SDS011;11069;48.988;8.450;2024-03-08T14:18:00;23.73;;;17.10;;
21814;SDS011;11069;48.988;8.450;2024-03-08T14:20:26;23.40;;;17.20;;
21814;SDS011;11069;48.988;8.450;2024-03-08T14:22:55;22.00;;;16.58;;
21814;SDS011;11069;48.988;8.450;2024-03-08T14:25:21;23.50;;;17.75;;
21814;SDS011;11069;48.988;8.450;2024-03-08T14:27:48;22.25;;;17.10;;
21814;SDS011;11069;48.988;8.450;2024-03-08T14:30:14;22.25;;;16.75;;
21814;SDS011;11069;48.988;8.450;2024-03-08T14:32:57;25.20;;;17.65;;
21814;SDS011;11069;48.988;8.450;2024-03-08T14:35:34;22.92;;;16.98;;